sensor_id;sensor_type;location;lat;lon;timestamp;P1;durP1;ratioP1;P2;durP2;ratioP2
18659;SDS011;9459;50.254;19.014;2023-07-13T00:00:05;2.88;;;2.28;;
18659;SDS011;9459;50.254;19.014;2023-07-13T00:02:56;3.75;;;1.98;;
18659;SDS011;9459;50.254;19.014;2023-07-13T00:05:24;5.93;;;2.20;;
18659;SDS011;9459;50.254;19.014;2023-07-13T00:07:55;3.75;;;1.90;;
18659;SDS011;9459;50.254;19.014;2023-07-13T00:10:23;4.35;;;1.77;;
18659;SDS011;9459;50.254;19.014;2023-07-13T00:12:52;2.30;;;1.60;;
18659;SDS011;9459;50.254;19.014;2023-07-13T00:15:23;2.35;;;1.65;;
18659;SDS011;9459;50.254;19.014;2023-07-13T00:17:54;3.75;;;1.80;;
18659;SDS011;9459;50.254;19.014;2023-07-13T00:20:23;3.80;;;1.63;;
18659;SDS011;9459;50.254;19.014;2023-07-13T00:22:53;1.77;;;1.50;;
18659;SDS011;9459;50.254;19.014;2023-07-13T00:25:24;2.85;;;1.55;;
18659;SDS011;9459;50.254;19.014;2023-07-13T00:27:55;2.55;;;1.48;;
18659;SDS011;9459;50.254;19.014;2023-07-13T00:30:23;3.58;;;1.63;;
18659;SDS011;9459;50.254;19.014;2023-07-13T00:32:52;4.53;;;2.47;;
18659;SDS011;9459;50.254;19.014;2023-07-13T00:35:41;3.75;;;2.25;;
18659;SDS011;9459;50.254;19.014;2023-07-13T00:38:12;4.50;;;2.28;;
18659;SDS011;9459;50.254;19.014;2023-07-13T00:40:41;4.32;;;2.10;;
18659;SDS011;9459;50.254;19.014;2023-07-13T00:43:12;4.60;;;2.83;;
18659;SDS011;9459;50.254;19.014;2023-07-13T00:48:47;4.60;;;3.35;;
18659;SDS011;9459;50.254;19.014;2023-07-13T00:51:20;5.15;;;4.63;;
18659;SDS011;9459;50.254;19.014;2023-07-13T00:53:54;4.88;;;3.92;;
18659;SDS011;9459;50.254;19.014;2023-07-13T00:56:25;2.90;;;2.50;;
18659;SDS011;9459;50.254;19.014;2023-07-13T00:58:53;5.38;;;3.30;;
18659;SDS011;9459;50.254;19.014;2023-07-13T01:01:22;4.60;;;3.20;;
18659;SDS011;9459;50.254;19.014;2023-07-13T01:03:50;4.75;;;3.83;;
18659;SDS011;9459;50.254;19.014;2023-07-13T01:06:21;5.00;;;3.73;;
18659;SDS011;9459;50.254;19.014;2023-07-13T01:08:49;4.72;;;3.22;;
18659;SDS011;9459;50.254;19.014;2023-07-13T01:11:20;4.30;;;2.95;;
18659;SDS011;9459;50.254;19.014;2023-07-13T01:13:49;4.35;;;3.13;;
18659;SDS011;9459;50.254;19.014;2023-07-13T01:16:19;4.20;;;3.40;;
18659;SDS011;9459;50.254;19.014;2023-07-13T01:18:50;3.72;;;2.83;;
18659;SDS011;9459;50.254;19.014;2023-07-13T01:21:20;3.03;;;2.50;;
18659;SDS011;9459;50.254;19.014;2023-07-13T01:23:48;4.28;;;2.83;;
18659;SDS011;9459;50.254;19.014;2023-07-13T01:26:17;3.85;;;2.50;;
18659;SDS011;9459;50.254;19.014;2023-07-13T01:28:46;3.80;;;3.20;;
18659;SDS011;9459;50.254;19.014;2023-07-13T01:31:14;4.68;;;3.00;;
18659;SDS011;9459;50.254;19.014;2023-07-13T01:33:43;3.58;;;2.95;;
18659;SDS011;9459;50.254;19.014;2023-07-13T01:36:12;5.13;;;3.03;;
18659;SDS011;9459;50.254;19.014;2023-07-13T01:38:41;4.85;;;3.45;;
18659;SDS011;9459;50.254;19.014;2023-07-13T01:41:11;3.90;;;2.80;;
18659;SDS011;9459;50.254;19.014;2023-07-13T01:43:39;3.53;;;2.47;;
18659;SDS011;9459;50.254;19.014;2023-07-13T01:46:08;4.80;;;3.13;;
18659;SDS011;9459;50.254;19.014;2023-07-13T01:48:50;4.13;;;2.63;;
18659;SDS011;9459;50.254;19.014;2023-07-13T01:51:19;3.45;;;2.72;;
18659;SDS011;9459;50.254;19.014;2023-07-13T01:53:49;3.75;;;2.83;;
18659;SDS011;9459;50.254;19.014;2023-07-13T01:56:18;3.95;;;2.70;;
18659;SDS011;9459;50.254;19.014;2023-07-13T01:58:46;7.97;;;4.30;;
18659;SDS011;9459;50.254;19.014;2023-07-13T02:01:15;6.13;;;3.28;;
18659;SDS011;9459;50.254;19.014;2023-07-13T02:03:44;5.22;;;3.42;;
18659;SDS011;9459;50.254;19.014;2023-07-13T02:06:13;5.03;;;3.20;;
18659;SDS011;9459;50.254;19.014;2023-07-13T02:08:42;4.57;;;2.85;;
18659;SDS011;9459;50.254;19.014;2023-07-13T02:11:12;3.13;;;2.50;;
18659;SDS011;9459;50.254;19.014;2023-07-13T02:13:40;3.65;;;2.47;;
18659;SDS011;9459;50.254;19.014;2023-07-13T02:16:09;4.25;;;2.15;;
18659;SDS011;9459;50.254;19.014;2023-07-13T02:18:38;4.38;;;2.47;;
18659;SDS011;9459;50.254;19.014;2023-07-13T02:21:07;4.07;;;2.42;;
18659;SDS011;9459;50.254;19.014;2023-07-13T02:23:35;4.00;;;2.90;;
18659;SDS011;9459;50.254;19.014;2023-07-13T02:26:03;3.20;;;2.58;;
18659;SDS011;9459;50.254;19.014;2023-07-13T02:28:33;4.43;;;2.60;;
18659;SDS011;9459;50.254;19.014;2023-07-13T02:31:05;4.05;;;2.58;;
18659;SDS011;9459;50.254;19.014;2023-07-13T02:33:34;2.92;;;2.45;;
18659;SDS011;9459;50.254;19.014;2023-07-13T02:36:03;4.68;;;2.60;;
18659;SDS011;9459;50.254;19.014;2023-07-13T02:38:35;4.97;;;2.90;;
18659;SDS011;9459;50.254;19.014;2023-07-13T02:41:04;3.25;;;2.70;;
18659;SDS011;9459;50.254;19.014;2023-07-13T02:43:34;4.95;;;3.20;;
18659;SDS011;9459;50.254;19.014;2023-07-13T02:46:02;3.78;;;3.20;;
18659;SDS011;9459;50.254;19.014;2023-07-13T02:48:35;4.68;;;2.60;;
18659;SDS011;9459;50.254;19.014;2023-07-13T02:51:04;3.80;;;3.15;;
18659;SDS011;9459;50.254;19.014;2023-07-13T02:53:33;5.53;;;3.60;;
18659;SDS011;9459;50.254;19.014;2023-07-13T02:56:03;3.42;;;2.97;;
18659;SDS011;9459;50.254;19.014;2023-07-13T02:58:33;3.50;;;2.88;;
18659;SDS011;9459;50.254;19.014;2023-07-13T03:01:05;4.22;;;3.00;;
18659;SDS011;9459;50.254;19.014;2023-07-13T03:03:35;4.85;;;3.67;;
18659;SDS011;9459;50.254;19.014;2023-07-13T03:06:04;6.28;;;3.90;;
18659;SDS011;9459;50.254;19.014;2023-07-13T03:08:35;5.25;;;4.22;;
18659;SDS011;9459;50.254;19.014;2023-07-13T03:11:05;5.15;;;3.63;;
18659;SDS011;9459;50.254;19.014;2023-07-13T03:13:36;5.53;;;4.00;;
18659;SDS011;9459;50.254;19.014;2023-07-13T03:16:05;4.53;;;3.45;;
18659;SDS011;9459;50.254;19.014;2023-07-13T03:18:34;5.40;;;3.42;;
18659;SDS011;9459;50.254;19.014;2023-07-13T03:21:03;4.45;;;3.40;;
18659;SDS011;9459;50.254;19.014;2023-07-13T03:23:32;5.72;;;3.47;;
18659;SDS011;9459;50.254;19.014;2023-07-13T03:26:01;5.05;;;3.30;;
18659;SDS011;9459;50.254;19.014;2023-07-13T03:28:31;3.28;;;2.97;;
18659;SDS011;9459;50.254;19.014;2023-07-13T03:31:01;4.25;;;3.25;;
18659;SDS011;9459;50.254;19.014;2023-07-13T03:35:59;4.55;;;4.05;;
18659;SDS011;9459;50.254;19.014;2023-07-13T03:38:28;5.45;;;3.25;;
18659;SDS011;9459;50.254;19.014;2023-07-13T03:40:56;4.25;;;3.25;;
18659;SDS011;9459;50.254;19.014;2023-07-13T03:43:25;4.30;;;3.30;;
18659;SDS011;9459;50.254;19.014;2023-07-13T03:45:53;5.30;;;4.00;;
18659;SDS011;9459;50.254;19.014;2023-07-13T03:48:23;5.35;;;3.45;;
18659;SDS011;9459;50.254;19.014;2023-07-13T03:50:52;4.83;;;3.37;;
18659;SDS011;9459;50.254;19.014;2023-07-13T03:53:20;4.78;;;3.58;;
18659;SDS011;9459;50.254;19.014;2023-07-13T03:55:49;4.88;;;3.00;;
18659;SDS011;9459;50.254;19.014;2023-07-13T03:58:24;7.57;;;3.60;;
18659;SDS011;9459;50.254;19.014;2023-07-13T04:00:55;6.15;;;3.92;;
18659;SDS011;9459;50.254;19.014;2023-07-13T04:03:25;4.10;;;3.53;;
18659;SDS011;9459;50.254;19.014;2023-07-13T04:05:55;4.82;;;3.53;;
18659;SDS011;9459;50.254;19.014;2023-07-13T04:10:55;5.57;;;3.88;;
18659;SDS011;9459;50.254;19.014;2023-07-13T04:13:24;5.10;;;3.50;;
18659;SDS011;9459;50.254;19.014;2023-07-13T04:15:53;6.35;;;3.65;;
18659;SDS011;9459;50.254;19.014;2023-07-13T04:18:22;4.10;;;3.13;;
18659;SDS011;9459;50.254;19.014;2023-07-13T04:20:52;4.68;;;3.00;;
18659;SDS011;9459;50.254;19.014;2023-07-13T04:23:20;4.95;;;2.75;;
18659;SDS011;9459;50.254;19.014;2023-07-13T04:25:49;4.57;;;3.45;;
18659;SDS011;9459;50.254;19.014;2023-07-13T04:28:19;4.10;;;3.20;;
18659;SDS011;9459;50.254;19.014;2023-07-13T04:30:48;5.05;;;3.47;;
18659;SDS011;9459;50.254;19.014;2023-07-13T04:33:17;5.05;;;3.50;;
18659;SDS011;9459;50.254;19.014;2023-07-13T04:35:49;4.82;;;3.47;;
18659;SDS011;9459;50.254;19.014;2023-07-13T04:38:23;4.03;;;3.33;;
18659;SDS011;9459;50.254;19.014;2023-07-13T04:40:54;3.75;;;2.97;;
18659;SDS011;9459;50.254;19.014;2023-07-13T04:43:23;3.97;;;2.90;;
18659;SDS011;9459;50.254;19.014;2023-07-13T04:45:53;3.53;;;2.85;;
18659;SDS011;9459;50.254;19.014;2023-07-13T04:48:21;3.55;;;2.83;;
18659;SDS011;9459;50.254;19.014;2023-07-13T04:50:54;4.38;;;3.08;;
18659;SDS011;9459;50.254;19.014;2023-07-13T04:53:25;4.65;;;3.05;;
18659;SDS011;9459;50.254;19.014;2023-07-13T04:55:54;3.55;;;3.08;;
18659;SDS011;9459;50.254;19.014;2023-07-13T04:58:22;6.63;;;3.28;;
18659;SDS011;9459;50.254;19.014;2023-07-13T05:00:51;2.75;;;2.55;;
18659;SDS011;9459;50.254;19.014;2023-07-13T05:03:20;3.05;;;2.63;;
18659;SDS011;9459;50.254;19.014;2023-07-13T05:05:55;3.85;;;2.85;;
18659;SDS011;9459;50.254;19.014;2023-07-13T05:08:25;5.38;;;3.40;;
18659;SDS011;9459;50.254;19.014;2023-07-13T05:10:54;3.80;;;3.47;;
18659;SDS011;9459;50.254;19.014;2023-07-13T05:13:23;4.75;;;3.40;;
18659;SDS011;9459;50.254;19.014;2023-07-13T05:15:56;4.55;;;3.05;;
18659;SDS011;9459;50.254;19.014;2023-07-13T05:18:25;4.65;;;3.85;;
18659;SDS011;9459;50.254;19.014;2023-07-13T05:20:57;5.97;;;3.42;;
18659;SDS011;9459;50.254;19.014;2023-07-13T05:23:28;4.75;;;3.50;;
18659;SDS011;9459;50.254;19.014;2023-07-13T05:25:57;5.35;;;3.78;;
18659;SDS011;9459;50.254;19.014;2023-07-13T05:28:26;7.38;;;3.95;;
18659;SDS011;9459;50.254;19.014;2023-07-13T05:30:56;4.53;;;3.22;;
18659;SDS011;9459;50.254;19.014;2023-07-13T05:33:25;5.15;;;3.17;;
18659;SDS011;9459;50.254;19.014;2023-07-13T05:35:54;5.00;;;3.28;;
18659;SDS011;9459;50.254;19.014;2023-07-13T05:38:22;5.80;;;3.55;;
18659;SDS011;9459;50.254;19.014;2023-07-13T05:40:52;4.93;;;3.10;;
18659;SDS011;9459;50.254;19.014;2023-07-13T05:43:21;4.95;;;3.33;;
18659;SDS011;9459;50.254;19.014;2023-07-13T05:45:52;5.07;;;3.17;;
18659;SDS011;9459;50.254;19.014;2023-07-13T05:48:21;4.70;;;3.20;;
18659;SDS011;9459;50.254;19.014;2023-07-13T05:50:49;5.40;;;3.00;;
18659;SDS011;9459;50.254;19.014;2023-07-13T05:53:18;5.45;;;3.60;;
18659;SDS011;9459;50.254;19.014;2023-07-13T05:55:47;6.57;;;3.50;;
18659;SDS011;9459;50.254;19.014;2023-07-13T05:58:18;7.53;;;3.97;;
18659;SDS011;9459;50.254;19.014;2023-07-13T06:03:15;7.78;;;4.50;;
18659;SDS011;9459;50.254;19.014;2023-07-13T06:05:44;5.68;;;3.35;;
18659;SDS011;9459;50.254;19.014;2023-07-13T06:08:12;4.28;;;3.33;;
18659;SDS011;9459;50.254;19.014;2023-07-13T06:10:41;6.50;;;3.97;;
18659;SDS011;9459;50.254;19.014;2023-07-13T06:13:09;5.80;;;3.25;;
18659;SDS011;9459;50.254;19.014;2023-07-13T06:15:39;6.00;;;3.38;;
18659;SDS011;9459;50.254;19.014;2023-07-13T06:18:08;4.22;;;2.97;;
18659;SDS011;9459;50.254;19.014;2023-07-13T06:20:36;5.00;;;3.42;;
18659;SDS011;9459;50.254;19.014;2023-07-13T06:23:05;5.05;;;3.90;;
18659;SDS011;9459;50.254;19.014;2023-07-13T06:25:33;4.65;;;3.42;;
18659;SDS011;9459;50.254;19.014;2023-07-13T06:28:02;4.53;;;2.85;;
18659;SDS011;9459;50.254;19.014;2023-07-13T06:30:31;6.80;;;3.47;;
18659;SDS011;9459;50.254;19.014;2023-07-13T06:33:01;8.40;;;4.13;;
18659;SDS011;9459;50.254;19.014;2023-07-13T06:35:30;3.67;;;2.47;;
18659;SDS011;9459;50.254;19.014;2023-07-13T06:37:58;5.85;;;3.35;;
18659;SDS011;9459;50.254;19.014;2023-07-13T06:40:27;6.20;;;3.42;;
18659;SDS011;9459;50.254;19.014;2023-07-13T06:42:57;6.00;;;3.70;;
18659;SDS011;9459;50.254;19.014;2023-07-13T06:45:26;4.82;;;3.65;;
18659;SDS011;9459;50.254;19.014;2023-07-13T06:47:54;4.53;;;2.72;;
18659;SDS011;9459;50.254;19.014;2023-07-13T06:50:24;5.43;;;3.20;;
18659;SDS011;9459;50.254;19.014;2023-07-13T06:52:52;6.22;;;2.95;;
18659;SDS011;9459;50.254;19.014;2023-07-13T06:55:21;5.55;;;2.72;;
18659;SDS011;9459;50.254;19.014;2023-07-13T06:57:49;10.48;;;3.88;;
18659;SDS011;9459;50.254;19.014;2023-07-13T07:00:18;4.03;;;2.67;;
18659;SDS011;9459;50.254;19.014;2023-07-13T07:02:47;4.22;;;2.38;;
18659;SDS011;9459;50.254;19.014;2023-07-13T07:05:16;3.55;;;2.35;;
18659;SDS011;9459;50.254;19.014;2023-07-13T07:07:46;4.47;;;2.40;;
18659;SDS011;9459;50.254;19.014;2023-07-13T07:10:15;5.65;;;3.10;;
18659;SDS011;9459;50.254;19.014;2023-07-13T07:12:44;2.95;;;2.10;;
18659;SDS011;9459;50.254;19.014;2023-07-13T07:15:13;6.75;;;3.60;;
18659;SDS011;9459;50.254;19.014;2023-07-13T07:17:42;3.28;;;2.53;;
18659;SDS011;9459;50.254;19.014;2023-07-13T07:20:11;4.32;;;2.50;;
18659;SDS011;9459;50.254;19.014;2023-07-13T07:22:39;4.05;;;2.45;;
18659;SDS011;9459;50.254;19.014;2023-07-13T07:25:09;6.68;;;3.30;;
18659;SDS011;9459;50.254;19.014;2023-07-13T07:27:38;5.97;;;3.30;;
18659;SDS011;9459;50.254;19.014;2023-07-13T07:30:09;6.18;;;2.95;;
18659;SDS011;9459;50.254;19.014;2023-07-13T07:32:41;8.00;;;3.40;;
18659;SDS011;9459;50.254;19.014;2023-07-13T07:35:13;6.47;;;3.90;;
18659;SDS011;9459;50.254;19.014;2023-07-13T07:37:41;6.63;;;3.10;;
18659;SDS011;9459;50.254;19.014;2023-07-13T07:40:14;4.78;;;3.08;;
18659;SDS011;9459;50.254;19.014;2023-07-13T07:42:46;9.57;;;3.50;;
18659;SDS011;9459;50.254;19.014;2023-07-13T07:45:15;4.88;;;3.15;;
18659;SDS011;9459;50.254;19.014;2023-07-13T07:47:43;6.63;;;3.25;;
18659;SDS011;9459;50.254;19.014;2023-07-13T07:50:12;9.93;;;3.40;;
18659;SDS011;9459;50.254;19.014;2023-07-13T07:52:41;6.45;;;3.42;;
18659;SDS011;9459;50.254;19.014;2023-07-13T07:55:11;9.63;;;3.80;;
18659;SDS011;9459;50.254;19.014;2023-07-13T07:57:46;4.35;;;3.33;;
18659;SDS011;9459;50.254;19.014;2023-07-13T08:00:18;6.32;;;3.42;;
18659;SDS011;9459;50.254;19.014;2023-07-13T08:02:52;6.43;;;3.20;;
18659;SDS011;9459;50.254;19.014;2023-07-13T08:05:40;6.03;;;3.67;;
18659;SDS011;9459;50.254;19.014;2023-07-13T08:08:22;8.57;;;3.70;;
18659;SDS011;9459;50.254;19.014;2023-07-13T08:10:50;6.32;;;3.88;;
18659;SDS011;9459;50.254;19.014;2023-07-13T08:13:24;6.90;;;3.45;;
18659;SDS011;9459;50.254;19.014;2023-07-13T08:15:53;5.00;;;3.50;;
18659;SDS011;9459;50.254;19.014;2023-07-13T08:18:21;6.38;;;4.20;;
18659;SDS011;9459;50.254;19.014;2023-07-13T08:20:50;6.57;;;4.28;;
18659;SDS011;9459;50.254;19.014;2023-07-13T08:23:18;6.03;;;4.03;;
18659;SDS011;9459;50.254;19.014;2023-07-13T08:25:50;6.78;;;4.28;;
18659;SDS011;9459;50.254;19.014;2023-07-13T08:28:19;6.95;;;4.18;;
18659;SDS011;9459;50.254;19.014;2023-07-13T08:30:49;5.45;;;3.97;;
18659;SDS011;9459;50.254;19.014;2023-07-13T08:33:18;6.32;;;4.05;;
18659;SDS011;9459;50.254;19.014;2023-07-13T08:35:47;5.20;;;4.30;;
18659;SDS011;9459;50.254;19.014;2023-07-13T08:38:16;5.93;;;3.92;;
18659;SDS011;9459;50.254;19.014;2023-07-13T08:40:48;4.78;;;3.97;;
18659;SDS011;9459;50.254;19.014;2023-07-13T08:43:20;7.78;;;4.18;;
18659;SDS011;9459;50.254;19.014;2023-07-13T08:45:56;10.02;;;4.72;;
18659;SDS011;9459;50.254;19.014;2023-07-13T08:48:27;4.03;;;3.30;;
18659;SDS011;9459;50.254;19.014;2023-07-13T08:51:00;5.97;;;3.35;;
18659;SDS011;9459;50.254;19.014;2023-07-13T08:53:39;4.75;;;3.05;;
18659;SDS011;9459;50.254;19.014;2023-07-13T08:56:11;5.57;;;3.50;;
18659;SDS011;9459;50.254;19.014;2023-07-13T08:58:44;3.45;;;2.70;;
18659;SDS011;9459;50.254;19.014;2023-07-13T09:01:18;5.60;;;3.55;;
18659;SDS011;9459;50.254;19.014;2023-07-13T09:03:50;7.95;;;4.07;;
18659;SDS011;9459;50.254;19.014;2023-07-13T09:06:27;7.50;;;4.25;;
18659;SDS011;9459;50.254;19.014;2023-07-13T09:09:07;4.43;;;4.00;;
18659;SDS011;9459;50.254;19.014;2023-07-13T09:11:42;7.10;;;4.03;;
18659;SDS011;9459;50.254;19.014;2023-07-13T09:14:20;4.60;;;4.00;;
18659;SDS011;9459;50.254;19.014;2023-07-13T09:16:59;4.50;;;3.38;;
18659;SDS011;9459;50.254;19.014;2023-07-13T09:19:29;5.35;;;3.13;;
18659;SDS011;9459;50.254;19.014;2023-07-13T09:21:59;5.47;;;3.65;;
18659;SDS011;9459;50.254;19.014;2023-07-13T09:24:34;4.80;;;3.33;;
18659;SDS011;9459;50.254;19.014;2023-07-13T09:27:09;5.60;;;3.95;;
18659;SDS011;9459;50.254;19.014;2023-07-13T09:29:45;6.22;;;3.85;;
18659;SDS011;9459;50.254;19.014;2023-07-13T09:32:20;6.65;;;3.70;;
18659;SDS011;9459;50.254;19.014;2023-07-13T09:34:50;6.47;;;3.80;;
18659;SDS011;9459;50.254;19.014;2023-07-13T09:37:20;7.30;;;4.63;;
18659;SDS011;9459;50.254;19.014;2023-07-13T09:39:50;9.63;;;5.63;;
18659;SDS011;9459;50.254;19.014;2023-07-13T09:42:20;8.55;;;5.63;;
18659;SDS011;9459;50.254;19.014;2023-07-13T09:44:51;9.25;;;5.00;;
18659;SDS011;9459;50.254;19.014;2023-07-13T09:47:23;7.05;;;4.82;;
18659;SDS011;9459;50.254;19.014;2023-07-13T09:49:54;8.35;;;5.63;;
18659;SDS011;9459;50.254;19.014;2023-07-13T09:52:38;10.90;;;5.15;;
18659;SDS011;9459;50.254;19.014;2023-07-13T09:55:22;6.82;;;4.35;;
18659;SDS011;9459;50.254;19.014;2023-07-13T09:57:53;5.47;;;4.30;;
18659;SDS011;9459;50.254;19.014;2023-07-13T10:00:22;7.05;;;4.07;;
18659;SDS011;9459;50.254;19.014;2023-07-13T10:02:59;7.50;;;4.00;;
18659;SDS011;9459;50.254;19.014;2023-07-13T10:05:37;4.93;;;3.22;;
18659;SDS011;9459;50.254;19.014;2023-07-13T10:08:14;5.10;;;2.40;;
18659;SDS011;9459;50.254;19.014;2023-07-13T10:10:45;4.22;;;2.45;;
18659;SDS011;9459;50.254;19.014;2023-07-13T10:13:27;5.78;;;2.38;;
18659;SDS011;9459;50.254;19.014;2023-07-13T10:15:58;3.50;;;1.83;;
18659;SDS011;9459;50.254;19.014;2023-07-13T10:18:29;3.17;;;1.73;;
18659;SDS011;9459;50.254;19.014;2023-07-13T10:21:08;2.30;;;1.60;;
18659;SDS011;9459;50.254;19.014;2023-07-13T10:24:02;4.37;;;2.23;;
18659;SDS011;9459;50.254;19.014;2023-07-13T10:26:34;2.83;;;1.58;;
18659;SDS011;9459;50.254;19.014;2023-07-13T10:29:04;3.92;;;1.50;;
18659;SDS011;9459;50.254;19.014;2023-07-13T10:31:35;3.67;;;1.45;;
18659;SDS011;9459;50.254;19.014;2023-07-13T10:34:08;7.05;;;1.95;;
18659;SDS011;9459;50.254;19.014;2023-07-13T10:36:38;4.22;;;1.73;;
18659;SDS011;9459;50.254;19.014;2023-07-13T10:39:10;2.67;;;1.20;;
18659;SDS011;9459;50.254;19.014;2023-07-13T10:41:43;2.08;;;1.10;;
18659;SDS011;9459;50.254;19.014;2023-07-13T10:44:15;1.83;;;1.20;;
18659;SDS011;9459;50.254;19.014;2023-07-13T10:46:46;1.10;;;0.90;;
18659;SDS011;9459;50.254;19.014;2023-07-13T10:49:17;2.53;;;1.25;;
18659;SDS011;9459;50.254;19.014;2023-07-13T10:51:46;1.75;;;1.10;;
18659;SDS011;9459;50.254;19.014;2023-07-13T10:54:19;1.52;;;1.00;;
18659;SDS011;9459;50.254;19.014;2023-07-13T10:56:50;4.22;;;1.20;;
18659;SDS011;9459;50.254;19.014;2023-07-13T10:59:23;2.60;;;1.30;;
18659;SDS011;9459;50.254;19.014;2023-07-13T11:01:56;3.60;;;1.23;;
18659;SDS011;9459;50.254;19.014;2023-07-13T11:06:58;2.70;;;1.40;;
18659;SDS011;9459;50.254;19.014;2023-07-13T11:09:33;3.53;;;1.40;;
18659;SDS011;9459;50.254;19.014;2023-07-13T11:12:07;3.20;;;1.20;;
18659;SDS011;9459;50.254;19.014;2023-07-13T11:15:00;2.10;;;1.27;;
18659;SDS011;9459;50.254;19.014;2023-07-13T11:17:35;2.70;;;1.70;;
18659;SDS011;9459;50.254;19.014;2023-07-13T11:20:19;4.13;;;1.52;;
18659;SDS011;9459;50.254;19.014;2023-07-13T11:22:53;3.00;;;1.63;;
18659;SDS011;9459;50.254;19.014;2023-07-13T11:25:36;6.07;;;1.60;;
18659;SDS011;9459;50.254;19.014;2023-07-13T11:28:07;2.70;;;1.80;;
18659;SDS011;9459;50.254;19.014;2023-07-13T11:30:46;3.25;;;1.60;;
18659;SDS011;9459;50.254;19.014;2023-07-13T11:33:16;4.45;;;1.60;;
18659;SDS011;9459;50.254;19.014;2023-07-13T11:35:50;3.55;;;1.48;;
18659;SDS011;9459;50.254;19.014;2023-07-13T11:38:22;2.42;;;1.45;;
18659;SDS011;9459;50.254;19.014;2023-07-13T11:40:53;2.78;;;1.50;;
18659;SDS011;9459;50.254;19.014;2023-07-13T11:43:22;2.80;;;1.77;;
18659;SDS011;9459;50.254;19.014;2023-07-13T11:45:51;3.85;;;1.45;;
18659;SDS011;9459;50.254;19.014;2023-07-13T11:48:21;2.03;;;1.55;;
18659;SDS011;9459;50.254;19.014;2023-07-13T11:50:53;3.05;;;1.60;;
18659;SDS011;9459;50.254;19.014;2023-07-13T11:53:24;2.45;;;1.45;;
18659;SDS011;9459;50.254;19.014;2023-07-13T11:55:55;3.35;;;1.70;;
18659;SDS011;9459;50.254;19.014;2023-07-13T11:58:24;2.05;;;1.50;;
18659;SDS011;9459;50.254;19.014;2023-07-13T12:00:56;1.90;;;1.67;;
18659;SDS011;9459;50.254;19.014;2023-07-13T12:03:27;3.60;;;1.50;;
18659;SDS011;9459;50.254;19.014;2023-07-13T12:06:01;1.98;;;1.45;;
18659;SDS011;9459;50.254;19.014;2023-07-13T12:08:37;3.28;;;1.67;;
18659;SDS011;9459;50.254;19.014;2023-07-13T12:11:11;2.00;;;1.40;;
18659;SDS011;9459;50.254;19.014;2023-07-13T12:13:44;4.32;;;1.65;;
18659;SDS011;9459;50.254;19.014;2023-07-13T12:16:17;2.20;;;1.88;;
18659;SDS011;9459;50.254;19.014;2023-07-13T12:18:49;1.77;;;1.55;;
18659;SDS011;9459;50.254;19.014;2023-07-13T12:21:23;2.53;;;1.50;;
18659;SDS011;9459;50.254;19.014;2023-07-13T12:23:56;2.25;;;1.60;;
18659;SDS011;9459;50.254;19.014;2023-07-13T12:26:25;2.30;;;1.30;;
18659;SDS011;9459;50.254;19.014;2023-07-13T12:28:54;2.83;;;1.10;;
18659;SDS011;9459;50.254;19.014;2023-07-13T12:31:25;1.83;;;1.23;;
18659;SDS011;9459;50.254;19.014;2023-07-13T12:33:58;2.55;;;1.35;;
18659;SDS011;9459;50.254;19.014;2023-07-13T12:36:34;3.17;;;1.83;;
18659;SDS011;9459;50.254;19.014;2023-07-13T12:39:06;2.65;;;1.30;;
18659;SDS011;9459;50.254;19.014;2023-07-13T12:41:41;1.42;;;1.05;;
18659;SDS011;9459;50.254;19.014;2023-07-13T12:44:11;3.22;;;1.50;;
18659;SDS011;9459;50.254;19.014;2023-07-13T12:46:50;4.68;;;1.55;;
18659;SDS011;9459;50.254;19.014;2023-07-13T12:49:23;4.30;;;1.58;;
18659;SDS011;9459;50.254;19.014;2023-07-13T12:51:57;1.90;;;1.40;;
18659;SDS011;9459;50.254;19.014;2023-07-13T12:54:26;2.53;;;1.48;;
18659;SDS011;9459;50.254;19.014;2023-07-13T12:56:55;1.95;;;1.50;;
18659;SDS011;9459;50.254;19.014;2023-07-13T12:59:28;2.87;;;2.10;;
18659;SDS011;9459;50.254;19.014;2023-07-13T13:02:00;3.75;;;2.88;;
18659;SDS011;9459;50.254;19.014;2023-07-13T13:04:29;3.33;;;2.60;;
18659;SDS011;9459;50.254;19.014;2023-07-13T13:07:03;1.98;;;1.77;;
18659;SDS011;9459;50.254;19.014;2023-07-13T13:09:35;2.83;;;1.77;;
18659;SDS011;9459;50.254;19.014;2023-07-13T13:12:06;2.45;;;1.70;;
18659;SDS011;9459;50.254;19.014;2023-07-13T13:14:40;3.35;;;1.98;;
18659;SDS011;9459;50.254;19.014;2023-07-13T13:17:14;5.32;;;1.80;;
18659;SDS011;9459;50.254;19.014;2023-07-13T13:19:47;2.20;;;1.80;;
18659;SDS011;9459;50.254;19.014;2023-07-13T13:22:17;4.88;;;2.30;;
18659;SDS011;9459;50.254;19.014;2023-07-13T13:24:46;2.63;;;2.30;;
18659;SDS011;9459;50.254;19.014;2023-07-13T13:27:16;2.67;;;2.13;;
18659;SDS011;9459;50.254;19.014;2023-07-13T13:29:45;2.63;;;2.20;;
18659;SDS011;9459;50.254;19.014;2023-07-13T13:32:14;5.07;;;2.67;;
18659;SDS011;9459;50.254;19.014;2023-07-13T13:34:43;3.08;;;2.78;;
18659;SDS011;9459;50.254;19.014;2023-07-13T13:37:16;3.35;;;2.70;;
18659;SDS011;9459;50.254;19.014;2023-07-13T13:39:47;4.80;;;2.80;;
18659;SDS011;9459;50.254;19.014;2023-07-13T13:42:33;4.05;;;3.15;;
18659;SDS011;9459;50.254;19.014;2023-07-13T13:45:02;3.15;;;2.78;;
18659;SDS011;9459;50.254;19.014;2023-07-13T13:47:32;4.32;;;3.38;;
18659;SDS011;9459;50.254;19.014;2023-07-13T13:50:09;4.25;;;2.00;;
18659;SDS011;9459;50.254;19.014;2023-07-13T13:52:41;2.85;;;1.98;;
18659;SDS011;9459;50.254;19.014;2023-07-13T13:55:13;2.90;;;2.15;;
18659;SDS011;9459;50.254;19.014;2023-07-13T13:57:42;2.45;;;1.98;;
18659;SDS011;9459;50.254;19.014;2023-07-13T14:00:11;3.90;;;1.75;;
18659;SDS011;9459;50.254;19.014;2023-07-13T14:02:42;2.35;;;1.80;;
18659;SDS011;9459;50.254;19.014;2023-07-13T14:05:14;5.97;;;1.88;;
18659;SDS011;9459;50.254;19.014;2023-07-13T14:07:48;3.13;;;1.80;;
18659;SDS011;9459;50.254;19.014;2023-07-13T14:10:18;1.90;;;1.42;;
18659;SDS011;9459;50.254;19.014;2023-07-13T14:12:48;2.60;;;1.90;;
18659;SDS011;9459;50.254;19.014;2023-07-13T14:15:20;3.90;;;2.42;;
18659;SDS011;9459;50.254;19.014;2023-07-13T14:17:50;2.85;;;2.10;;
18659;SDS011;9459;50.254;19.014;2023-07-13T14:20:20;5.88;;;1.85;;
18659;SDS011;9459;50.254;19.014;2023-07-13T14:22:52;3.25;;;1.70;;
18659;SDS011;9459;50.254;19.014;2023-07-13T14:25:21;1.73;;;1.33;;
18659;SDS011;9459;50.254;19.014;2023-07-13T14:27:52;3.38;;;1.77;;
18659;SDS011;9459;50.254;19.014;2023-07-13T14:30:23;4.97;;;2.05;;
18659;SDS011;9459;50.254;19.014;2023-07-13T14:32:52;3.13;;;1.48;;
18659;SDS011;9459;50.254;19.014;2023-07-13T14:35:21;3.47;;;1.85;;
18659;SDS011;9459;50.254;19.014;2023-07-13T14:37:50;3.33;;;1.80;;
18659;SDS011;9459;50.254;19.014;2023-07-13T14:40:21;2.25;;;1.70;;
18659;SDS011;9459;50.254;19.014;2023-07-13T14:42:52;2.28;;;1.80;;
18659;SDS011;9459;50.254;19.014;2023-07-13T14:45:21;2.17;;;1.58;;
18659;SDS011;9459;50.254;19.014;2023-07-13T14:47:50;3.47;;;1.80;;
18659;SDS011;9459;50.254;19.014;2023-07-13T14:50:20;6.95;;;1.80;;
18659;SDS011;9459;50.254;19.014;2023-07-13T14:52:51;2.88;;;1.75;;
18659;SDS011;9459;50.254;19.014;2023-07-13T14:55:20;3.90;;;1.88;;
18659;SDS011;9459;50.254;19.014;2023-07-13T14:57:50;2.08;;;1.33;;
18659;SDS011;9459;50.254;19.014;2023-07-13T15:00:20;2.35;;;1.40;;
18659;SDS011;9459;50.254;19.014;2023-07-13T15:02:50;2.42;;;1.65;;
18659;SDS011;9459;50.254;19.014;2023-07-13T15:05:23;2.72;;;1.70;;
18659;SDS011;9459;50.254;19.014;2023-07-13T15:07:53;3.28;;;1.92;;
18659;SDS011;9459;50.254;19.014;2023-07-13T15:10:23;3.67;;;1.70;;
18659;SDS011;9459;50.254;19.014;2023-07-13T15:12:56;2.50;;;1.80;;
18659;SDS011;9459;50.254;19.014;2023-07-13T15:15:27;3.05;;;1.98;;
18659;SDS011;9459;50.254;19.014;2023-07-13T15:17:56;1.77;;;1.67;;
18659;SDS011;9459;50.254;19.014;2023-07-13T15:20:26;2.42;;;1.70;;
18659;SDS011;9459;50.254;19.014;2023-07-13T15:23:00;2.72;;;1.80;;